Time;durP1;ratioP1;P1;durP2;ratioP2;P2;SDS_P1;SDS_P2;PMS_P1;PMS_P2;Temp;Humidity;BMP_temperature;BMP_pressure;BME280_temperature;BME280_humidity;BME280_pressure;Samples;Min_cycle;Max_cycle;Signal;HPM_P1;HPM_P2
2021/07/02 00:00:04;;;;;;;;;;;;;;;;;;5070681;28;20114;-79
2021/07/02 00:02:31;;;;;;;;;;;;;;;;;;5066411;28;19924;-80
2021/07/02 00:04:59;;;;;;;;;;;;;;;;;;5056287;28;19920;-80
2021/07/02 00:07:26;;;;;;;;;;;;;;;;;;5064363;28;19959;-80
2021/07/02 00:09:53;;;;;;;;;;;;;;;;;;5070414;28;20014;-80
2021/07/02 00:12:20;;;;;;;;;;;;;;;;;;5066125;28;20800;-80
2021/07/02 00:14:47;;;;;;;;;;;;;;;;;;5062678;28;19956;-81
2021/07/02 00:17:14;;;;;;;;;;;;;;;;;;5076444;28;20039;-80
2021/07/02 00:19:42;;;;;;;;;;;;;;;;;;5065278;28;19925;-80
2021/07/02 00:22:09;;;;;;;;;;;;;;;;;;5076283;28;20020;-80
2021/07/02 00:24:36;;;;;;;;;;;;;;;;;;5080061;28;19924;-80
2021/07/02 00:27:03;;;;;;;;;;;;;;;;;;5071173;28;20744;-80
2021/07/02 00:29:30;;;;;;;;;;;;;;;;;;5081401;28;19974;-81
2021/07/02 00:31:58;;;;;;;;;;;;;;;;;;5062106;28;20007;-81
2021/07/02 00:34:25;;;;;;;;;;;;;;;;;;5059707;28;20508;-81
2021/07/02 00:36:52;;;;;;;;;;;;;;;;;;5086629;28;19963;-81
2021/07/02 00:39:19;;;;;;;;;;;;;;;;;;5091099;28;19971;-80
2021/07/02 00:41:47;;;;;;;;;;;;;;;;;;5064946;28;20015;-80
2021/07/02 00:44:14;;;;;;;;;;;;;;;;;;5061834;28;20529;-81
2021/07/02 00:46:41;;;;;;;;;;;;;;;;;;5063421;28;20003;-81
2021/07/02 00:49:09;;;;;;;;;;;;;;;;;;5071447;28;19927;-81
2021/07/02 00:51:38;;;;;;;;;;;;;;;;;;5067441;28;19966;-81
2021/07/02 00:54:05;;;;;;;;;;;;;;;;;;5073732;28;20011;-80
2021/07/02 00:56:32;;;;;;;;;;;;;;;;;;5070998;28;19968;-80
2021/07/02 00:58:59;;;;;;;;;;;;;;;;;;5070835;28;19960;-81
2021/07/02 01:01:26;;;;;;;;;;;;;;;;;;5062861;28;20003;-81
2021/07/02 01:03:53;;;;;;;;;;;;;;;;;;5087507;28;19943;-81
2021/07/02 01:06:20;;;;;;;;;;;;;;;;;;5078460;28;19989;-81
2021/07/02 01:08:47;;;;;;;;;;;;;;;;;;5068712;28;20386;-81
2021/07/02 01:11:20;;;;;;;;;;;;;;;;;;5071772;28;19967;-81
2021/07/02 01:13:47;;;;;;;;;;;;;;;;;;5068695;28;20392;-81
2021/07/02 01:16:14;;;;;;;;;;;;;;;;;;5053215;28;20016;-81
2021/07/02 01:18:41;;;;;;;;;;;;;;;;;;5090954;28;19920;-81
2021/07/02 01:21:10;;;;;;;;;;;;;;;;;;5075666;28;20015;-81
2021/07/02 01:23:37;;;;;;;;;;;;;;;;;;5066604;28;19924;-81
2021/07/02 01:26:04;;;;;;;;;;;;;;;;;;5063375;28;20378;-80
2021/07/02 01:28:35;;;;;;;;;;;;;;;;;;5061423;28;19924;-80
2021/07/02 01:31:03;;;;;;;;;;;;;;;;;;5067233;28;19960;-81
2021/07/02 01:33:30;;;;;;;;;;;;;;;;;;5083961;28;20042;-81
2021/07/02 01:35:57;;;;;;;;;;;;;;;;;;5068132;28;20078;-80
2021/07/02 01:38:24;;;;;;;;;;;;;;;;;;5082512;28;20026;-81
2021/07/02 01:40:54;;;;;;;;;;;;;;;;;;5053387;28;20023;-80
2021/07/02 01:43:21;;;;;;;;;;;;;;;;;;5065553;28;19920;-80
2021/07/02 01:45:48;;;;;;;;;;;;;;;;;;5062151;28;20011;-81
2021/07/02 01:48:15;;;;;;;;;;;;;;;;;;5068456;28;19925;-80
2021/07/02 01:50:44;;;;;;;;;;;;;;;;;;5077827;28;19928;-80
2021/07/02 01:53:11;;;;;;;;;;;;;;;;;;5074931;28;19963;-81
2021/07/02 01:55:38;;;;;;;;;;;;;;;;;;5086688;28;19930;-81
2021/07/02 01:58:05;;;;;;;;;;;;;;;;;;5086688;28;20015;-80
2021/07/02 02:00:36;;;;;;;;;;;;;;;;;;5072424;28;19956;-80
2021/07/02 02:03:03;;;;;;;;;;;;;;;;;;5087142;28;20007;-81
2021/07/02 02:05:31;;;;;;;;;;;;;;;;;;5082014;28;20631;-80
2021/07/02 02:07:58;;;;;;;;;;;;;;;;;;5075802;28;20395;-81
2021/07/02 02:10:25;;;;;;;;;;;;;;;;;;5063370;28;19951;-80
2021/07/02 02:12:53;;;;;;;;;;;;;;;;;;5049483;28;19999;-80
2021/07/02 02:15:20;;;;;;;;;;;;;;;;;;5069812;28;20016;-80
2021/07/02 02:17:47;;;;;;;;;;;;;;;;;;5054915;28;20011;-80
2021/07/02 02:20:14;;;;;;;;;;;;;;;;;;5075886;28;20010;-81
2021/07/02 02:22:41;;;;;;;;;;;;;;;;;;5080530;28;20344;-80
2021/07/02 02:25:08;;;;;;;;;;;;;;;;;;5059132;28;19972;-81
2021/07/02 02:27:35;;;;;;;;;;;;;;;;;;5053606;28;19959;-80
2021/07/02 02:30:02;;;;;;;;;;;;;;;;;;5076682;28;20035;-80
2021/07/02 02:32:29;;;;;;;;;;;;;;;;;;5072537;28;19959;-80
2021/07/02 02:34:57;;;;;;;;;;;;;;;;;;5063093;28;19971;-80
2021/07/02 02:37:24;;;;;;;;;;;;;;;;;;5063898;28;19966;-80
2021/07/02 02:39:51;;;;;;;;;;;;;;;;;;5085089;28;19971;-80
2021/07/02 02:42:18;;;;;;;;;;;;;;;;;;5082359;28;20467;-80
2021/07/02 02:44:45;;;;;;;;;;;;;;;;;;5077915;28;19955;-81
2021/07/02 02:47:12;;;;;;;;;;;;;;;;;;5081119;28;19968;-81
2021/07/02 02:49:40;;;;;;;;;;;;;;;;;;5093816;28;19931;-80
2021/07/02 02:52:07;;;;;;;;;;;;;;;;;;5084686;28;19967;-80
2021/07/02 02:54:34;;;;;;;;;;;;;;;;;;5077997;28;19993;-80
2021/07/02 02:57:04;;;;;;;;;;;;;;;;;;5072628;28;20537;-80
2021/07/02 02:59:31;;;;;;;;;;;;;;;;;;5075137;28;19956;-80
2021/07/02 03:01:58;;;;;;;;;;;;;;;;;;5070616;28;20007;-80
2021/07/02 03:04:25;;;;;;;;;;;;;;;;;;5086186;28;20019;-80
2021/07/02 03:06:52;;;;;;;;;;;;;;;;;;5067324;28;20009;-80
2021/07/02 03:09:19;;;;;;;;;;;;;;;;;;5066779;28;19967;-80
2021/07/02 03:11:50;;;;;;;;;;;;;;;;;;5077530;28;19924;-80
2021/07/02 03:14:17;;;;;;;;;;;;;;;;;;5079454;28;19954;-80
2021/07/02 03:16:44;;;;;;;;;;;;;;;;;;5082430;28;19998;-80
2021/07/02 03:19:11;;;;;;;;;;;;;;;;;;5068394;28;20406;-80
2021/07/02 03:21:38;;;;;;;;;;;;;;;;;;5067853;28;20748;-80
2021/07/02 03:24:06;;;;;;;;;;;;;;;;;;5071974;28;19964;-80
2021/07/02 03:26:33;;;;;;;;;;;;;;;;;;5063838;28;20349;-80
2021/07/02 03:29:00;;;;;;;;;;;;;;;;;;5083953;28;19959;-80
2021/07/02 03:31:28;;;;;;;;;;;;;;;;;;5075277;28;19999;-80
2021/07/02 03:33:56;;;;;;;;;;;;;;;;;;5061407;28;19920;-80
2021/07/02 03:36:23;;;;;;;;;;;;;;;;;;5088446;28;19975;-80
2021/07/02 03:38:50;;;;;;;;;;;;;;;;;;5073621;28;19955;-80
2021/07/02 03:41:17;;;;;;;;;;;;;;;;;;5076585;28;19971;-80
2021/07/02 03:43:44;;;;;;;;;;;;;;;;;;5084413;28;19956;-80
2021/07/02 03:46:11;;;;;;;;;;;;;;;;;;5065940;28;20499;-80
2021/07/02 03:48:38;;;;;;;;;;;;;;;;;;5053243;28;19935;-80
2021/07/02 03:51:05;;;;;;;;;;;;;;;;;;5061195;28;20528;-80
2021/07/02 03:53:36;;;;;;;;;;;;;;;;;;5053739;28;19959;-81
2021/07/02 03:56:03;;;;;;;;;;;;;;;;;;5053857;28;19947;-81
2021/07/02 03:58:30;;;;;;;;;;;;;;;;;;5072913;28;20020;-81
2021/07/02 04:00:58;;;;;;;;;;;;;;;;;;5072692;28;20019;-81
2021/07/02 04:03:27;;;;;;;;;;;;;;;;;;5048300;28;20023;-81
2021/07/02 04:06:01;;;;;;;;;;;;;;;;;;5076029;28;19955;-81
2021/07/02 04:08:28;;;;;;;;;;;;;;;;;;5071689;28;20362;-80
2021/07/02 04:10:55;;;;;;;;;;;;;;;;;;5067641;28;19962;-82
2021/07/02 04:13:22;;;;;;;;;;;;;;;;;;5070246;28;19963;-80
2021/07/02 04:15:49;;;;;;;;;;;;;;;;;;5067573;28;19942;-81
2021/07/02 04:18:19;;;;;;;;;;;;;;;;;;5062652;28;20008;-80
2021/07/02 04:20:46;;;;;;;;;;;;;;;;;;5067010;28;19924;-81
2021/07/02 04:23:13;;;;;;;;;;;;;;;;;;5066260;28;19950;-80
2021/07/02 04:25:42;;;;;;;;;;;;;;;;;;5078743;28;19955;-81
2021/07/02 04:28:09;;;;;;;;;;;;;;;;;;5053725;28;19966;-81
2021/07/02 04:30:36;;;;;;;;;;;;;;;;;;5070707;28;19971;-80
2021/07/02 04:33:03;;;;;;;;;;;;;;;;;;5054249;28;19924;-81
2021/07/02 04:35:36;;;;;;;;;;;;;;;;;;5076200;28;19975;-80
2021/07/02 04:38:03;;;;;;;;;;;;;;;;;;5073324;28;20031;-80
2021/07/02 04:40:30;;;;;;;;;;;;;;;;;;5073045;28;19924;-80
2021/07/02 04:42:58;;;;;;;;;;;;;;;;;;5065020;28;19924;-81
2021/07/02 04:45:25;;;;;;;;;;;;;;;;;;5071227;28;20007;-81
2021/07/02 04:47:52;;;;;;;;;;;;;;;;;;5078479;28;19971;-82
2021/07/02 04:50:19;;;;;;;;;;;;;;;;;;5054843;28;19924;-82
2021/07/02 04:52:47;;;;;;;;;;;;;;;;;;5056504;28;19924;-80
2021/07/02 04:55:14;;;;;;;;;;;;;;;;;;5064531;28;21734;-80
2021/07/02 04:57:41;;;;;;;;;;;;;;;;;;5080745;28;19963;-80
2021/07/02 05:00:09;;;;;;;;;;;;;;;;;;5069073;28;19921;-79
2021/07/02 05:02:36;;;;;;;;;;;;;;;;;;5074683;28;20022;-82
2021/07/02 05:05:03;;;;;;;;;;;;;;;;;;5069357;28;19924;-83
2021/07/02 05:07:30;;;;;;;;;;;;;;;;;;5069131;28;19971;-82
2021/07/02 05:10:00;;;;;;;;;;;;;;;;;;5070506;28;19982;-82
2021/07/02 05:12:27;;;;;;;;;;;;;;;;;;5058674;28;20049;-82
2021/07/02 05:14:54;;;;;;;;;;;;;;;;;;5077920;28;19996;-82
2021/07/02 05:17:21;;;;;;;;;;;;;;;;;;5069473;28;20030;-81
2021/07/02 05:19:48;;;;;;;;;;;;;;;;;;5078858;28;20431;-83
2021/07/02 05:22:19;;;;;;;;;;;;;;;;;;5075395;28;19966;-81
2021/07/02 05:24:46;;;;;;;;;;;;;;;;;;5080129;28;19920;-80
2021/07/02 05:27:13;;;;;;;;;;;;;;;;;;5077841;28;19955;-79
2021/07/02 05:29:40;;;;;;;;;;;;;;;;;;5055107;28;19967;-78
2021/07/02 05:32:07;;;;;;;;;;;;;;;;;;5089472;28;20023;-80
2021/07/02 05:34:35;;;;;;;;;;;;;;;;;;5091684;28;20023;-80
2021/07/02 05:37:03;;;;;;;;;;;;;;;;;;5052799;28;20008;-79
2021/07/02 05:39:30;;;;;;;;;;;;;;;;;;5080436;28;20679;-80
2021/07/02 05:41:57;;;;;;;;;;;;;;;;;;5069772;28;19921;-80
2021/07/02 05:44:24;;;;;;;;;;;;;;;;;;5053105;28;20009;-80
2021/07/02 05:46:51;;;;;;;;;;;;;;;;;;5070846;28;20015;-80
2021/07/02 05:49:19;;;;;;;;;;;;;;;;;;5086898;28;20006;-80
2021/07/02 05:51:46;;;;;;;;;;;;;;;;;;5064408;28;20019;-80
2021/07/02 05:54:13;;;;;;;;;;;;;;;;;;5076620;28;19963;-80
2021/07/02 05:56:40;;;;;;;;;;;;;;;;;;5065964;28;19923;-79
2021/07/02 05:59:07;;;;;;;;;;;;;;;;;;5055814;28;20420;-80
2021/07/02 06:01:34;;;;;;;;;;;;;;;;;;5078349;28;19966;-79
2021/07/02 06:04:01;;;;;;;;;;;;;;;;;;5077898;28;19925;-79
2021/07/02 06:06:29;;;;;;;;;;;;;;;;;;5077764;28;19962;-80
2021/07/02 06:08:56;;;;;;;;;;;;;;;;;;5067069;28;19967;-80
2021/07/02 06:11:24;;;;;;;;;;;;;;;;;;5061378;28;19928;-79
2021/07/02 06:13:51;;;;;;;;;;;;;;;;;;5080471;28;20010;-80
2021/07/02 06:16:18;;;;;;;;;;;;;;;;;;5051855;28;19964;-80
2021/07/02 06:18:46;;;;;;;;;;;;;;;;;;5061479;28;19924;-79
2021/07/02 06:21:13;;;;;;;;;;;;;;;;;;5084914;28;19920;-80
2021/07/02 06:23:40;;;;;;;;;;;;;;;;;;5082069;28;20436;-80
2021/07/02 06:26:07;;;;;;;;;;;;;;;;;;5076761;28;20341;-80
2021/07/02 06:28:34;;;;;;;;;;;;;;;;;;5078143;28;19999;-79
2021/07/02 06:31:02;;;;;;;;;;;;;;;;;;5052502;28;20015;-79
2021/07/02 06:33:29;;;;;;;;;;;;;;;;;;5064200;28;19930;-80
2021/07/02 06:35:56;;;;;;;;;;;;;;;;;;5083115;28;20425;-79
2021/07/02 06:38:23;;;;;;;;;;;;;;;;;;5069679;28;19975;-79
2021/07/02 06:40:52;;;;;;;;;;;;;;;;;;5086884;28;19963;-79
2021/07/02 06:43:19;;;;;;;;;;;;;;;;;;5072566;28;19971;-81
2021/07/02 06:45:46;;;;;;;;;;;;;;;;;;5071329;28;20439;-80
2021/07/02 06:48:13;;;;;;;;;;;;;;;;;;5072010;28;20265;-81
2021/07/02 06:50:42;;;;;;;;;;;;;;;;;;5081646;28;19975;-80
2021/07/02 06:53:10;;;;;;;;;;;;;;;;;;5062350;28;20019;-80
2021/07/02 06:55:37;;;;;;;;;;;;;;;;;;5060394;28;19967;-80
2021/07/02 06:58:04;;;;;;;;;;;;;;;;;;5070042;28;19930;-80
2021/07/02 07:00:31;;;;;;;;;;;;;;;;;;5052610;28;19967;-79
2021/07/02 07:02:58;;;;;;;;;;;;;;;;;;5073679;28;20007;-80
2021/07/02 07:05:27;;;;;;;;;;;;;;;;;;5064682;28;19928;-80
2021/07/02 07:07:55;;;;;;;;;;;;;;;;;;5055209;28;19967;-80
2021/07/02 07:10:22;;;;;;;;;;;;;;;;;;5077637;28;19958;-79
2021/07/02 07:12:49;;;;;;;;;;;;;;;;;;5076386;28;20015;-79
2021/07/02 07:15:16;;;;;;;;;;;;;;;;;;5060362;28;19935;-79
2021/07/02 07:17:43;;;;;;;;;;;;;;;;;;5075184;28;20026;-80
2021/07/02 07:20:11;;;;;;;;;;;;;;;;;;5081856;28;19983;-80
2021/07/02 07:22:38;;;;;;;;;;;;;;;;;;5056637;28;20352;-80
2021/07/02 07:25:05;;;;;;;;;;;;;;;;;;5082173;28;20113;-79
2021/07/02 07:27:33;;;;;;;;;;;;;;;;;;5077057;28;19967;-80
2021/07/02 07:30:00;;;;;;;;;;;;;;;;;;5078589;28;19978;-80
2021/07/02 07:32:27;;;;;;;;;;;;;;;;;;5052730;28;20011;-80
2021/07/02 07:34:58;;;;;;;;;;;;;;;;;;5079142;28;19967;-80
2021/07/02 07:37:27;;;;;;;;;;;;;;;;;;5054749;28;19963;-80
2021/07/02 07:39:54;;;;;;;;;;;;;;;;;;5064510;28;20010;-79
2021/07/02 07:42:21;;;;;;;;;;;;;;;;;;5072696;28;19967;-80
2021/07/02 07:44:48;;;;;;;;;;;;;;;;;;5057686;28;19955;-80
2021/07/02 07:47:15;;;;;;;;;;;;;;;;;;5070967;28;20442;-80
2021/07/02 07:49:45;;;;;;;;;;;;;;;;;;5076798;28;20289;-80
2021/07/02 07:52:15;;;;;;;;;;;;;;;;;;5069980;28;20007;-80
2021/07/02 07:54:43;;;;;;;;;;;;;;;;;;5064893;28;19970;-80
2021/07/02 07:57:10;;;;;;;;;;;;;;;;;;5081341;28;20035;-80
2021/07/02 07:59:37;;;;;;;;;;;;;;;;;;5056788;28;19954;-79
2021/07/02 08:02:04;;;;;;;;;;;;;;;;;;5077592;28;20014;-80
2021/07/02 08:04:31;;;;;;;;;;;;;;;;;;5069559;28;19920;-80
2021/07/02 08:06:58;;;;;;;;;;;;;;;;;;5068651;28;19952;-80
2021/07/02 08:09:27;;;;;;;;;;;;;;;;;;5078151;28;19955;-79
2021/07/02 08:11:54;;;;;;;;;;;;;;;;;;5054499;28;20039;-80
2021/07/02 08:14:21;;;;;;;;;;;;;;;;;;5067467;28;20015;-79
2021/07/02 08:16:48;;;;;;;;;;;;;;;;;;5064707;28;19924;-79
2021/07/02 08:19:15;;;;;;;;;;;;;;;;;;5077027;28;19937;-79
2021/07/02 08:21:46;;;;;;;;;;;;;;;;;;5071941;28;19931;-80
2021/07/02 08:24:13;;;;;;;;;;;;;;;;;;5086054;28;19959;-79
2021/07/02 08:26:41;;;;;;;;;;;;;;;;;;5063517;28;19968;-80
2021/07/02 08:29:23;;;;;;;;;;;;;;;;;;5065792;28;20011;-79
2021/07/02 08:31:53;;;;;;;;;;;;;;;;;;5072295;28;20634;-80
2021/07/02 08:34:21;;;;;;;;;;;;;;;;;;5074833;28;19924;-79
2021/07/02 08:36:49;;;;;;;;;;;;;;;;;;5061983;28;19960;-80
2021/07/02 08:39:16;;;;;;;;;;;;;;;;;;5073461;28;20019;-79
2021/07/02 08:41:43;;;;;;;;;;;;;;;;;;5066000;28;20023;-79
2021/07/02 08:44:10;;;;;;;;;;;;;;;;;;5076239;28;20786;-79
2021/07/02 08:46:38;;;;;;;;;;;;;;;;;;5048867;28;20010;-80
2021/07/02 08:49:22;;;;;;;;;;;;;;;;;;5073067;28;19967;-80
2021/07/02 08:51:49;;;;;;;;;;;;;;;;;;5078444;28;19955;-80
2021/07/02 08:54:17;;;;;;;;;;;;;;;;;;5061705;28;20010;-79
2021/07/02 08:56:56;;;;;;;;;;;;;;;;;;5077005;28;19976;-79
2021/07/02 08:59:23;;;;;;;;;;;;;;;;;;5066955;28;20015;-80
2021/07/02 09:01:50;;;;;;;;;;;;;;;;;;5061078;28;19967;-80
2021/07/02 09:04:17;;;;;;;;;;;;;;;;;;5080600;28;19931;-79
2021/07/02 09:06:44;;;;;;;;;;;;;;;;;;5067175;28;19947;-79
2021/07/02 09:09:11;;;;;;;;;;;;;;;;;;5076092;28;20027;-79
2021/07/02 09:11:38;;;;;;;;;;;;;;;;;;5055880;28;19995;-80
2021/07/02 09:14:07;;;;;;;;;;;;;;;;;;5075662;28;19956;-80
2021/07/02 09:16:38;;;;;;;;;;;;;;;;;;5048793;28;19971;-79
2021/07/02 09:19:05;;;;;;;;;;;;;;;;;;5060177;28;20006;-79
2021/07/02 09:21:32;;;;;;;;;;;;;;;;;;5070270;28;20010;-78
2021/07/02 09:24:00;;;;;;;;;;;;;;;;;;5071274;28;19947;-79
2021/07/02 09:26:27;;;;;;;;;;;;;;;;;;5047795;28;19974;-80
2021/07/02 09:28:54;;;;;;;;;;;;;;;;;;5077744;28;20039;-79
2021/07/02 09:31:21;;;;;;;;;;;;;;;;;;5057213;28;20042;-80
2021/07/02 09:33:48;;;;;;;;;;;;;;;;;;5074223;28;20006;-80
2021/07/02 09:36:17;;;;;;;;;;;;;;;;;;5081762;28;19993;-80
2021/07/02 09:38:48;;;;;;;;;;;;;;;;;;5060773;28;19930;-80
2021/07/02 09:41:17;;;;;;;;;;;;;;;;;;5076166;28;20011;-80
2021/07/02 09:43:44;;;;;;;;;;;;;;;;;;5081703;28;20031;-80
2021/07/02 09:46:12;;;;;;;;;;;;;;;;;;5053791;28;20001;-79
2021/07/02 09:48:39;;;;;;;;;;;;;;;;;;5069257;28;19923;-79
2021/07/02 09:51:06;;;;;;;;;;;;;;;;;;5077446;28;19959;-80
2021/07/02 09:53:35;;;;;;;;;;;;;;;;;;5079953;28;20437;-80
2021/07/02 09:56:02;;;;;;;;;;;;;;;;;;5072647;28;19928;-80
2021/07/02 09:58:29;;;;;;;;;;;;;;;;;;5071745;28;19924;-80
2021/07/02 10:00:56;;;;;;;;;;;;;;;;;;5072469;28;20226;-80
2021/07/02 10:03:24;;;;;;;;;;;;;;;;;;5072073;28;19920;-80
2021/07/02 10:05:51;;;;;;;;;;;;;;;;;;5076230;28;20655;-80
2021/07/02 10:08:18;;;;;;;;;;;;;;;;;;5054501;28;20006;-80
2021/07/02 10:10:46;;;;;;;;;;;;;;;;;;5065122;28;20035;-80
2021/07/02 10:13:13;;;;;;;;;;;;;;;;;;5066984;28;19975;-79
2021/07/02 10:15:40;;;;;;;;;;;;;;;;;;5067703;28;19924;-80
2021/07/02 10:18:08;;;;;;;;;;;;;;;;;;5067695;28;19948;-80
2021/07/02 10:20:35;;;;;;;;;;;;;;;;;;5081569;28;20547;-80
2021/07/02 10:23:02;;;;;;;;;;;;;;;;;;5063468;28;19920;-79
2021/07/02 10:25:29;;;;;;;;;;;;;;;;;;5056107;28;19930;-80
2021/07/02 10:27:56;;;;;;;;;;;;;;;;;;5058833;28;20652;-80
2021/07/02 10:30:23;;;;;;;;;;;;;;;;;;5070080;28;20294;-80
2021/07/02 10:32:50;;;;;;;;;;;;;;;;;;5055040;28;19959;-81
2021/07/02 10:35:17;;;;;;;;;;;;;;;;;;5081012;28;20463;-81
2021/07/02 10:37:44;;;;;;;;;;;;;;;;;;5058534;28;20023;-80
2021/07/02 10:40:12;;;;;;;;;;;;;;;;;;5080295;28;19963;-80
2021/07/02 10:42:39;;;;;;;;;;;;;;;;;;5077354;28;19970;-81
2021/07/02 10:45:07;;;;;;;;;;;;;;;;;;5073901;28;19936;-81
2021/07/02 10:47:34;;;;;;;;;;;;;;;;;;5067582;28;19930;-80
2021/07/02 10:50:01;;;;;;;;;;;;;;;;;;5056543;28;19935;-80
2021/07/02 10:52:28;;;;;;;;;;;;;;;;;;5065347;28;20007;-80
2021/07/02 10:54:56;;;;;;;;;;;;;;;;;;5065586;28;20485;-81
2021/07/02 10:57:23;;;;;;;;;;;;;;;;;;5049150;28;19956;-81
2021/07/02 10:59:54;;;;;;;;;;;;;;;;;;5049225;28;19956;-79
2021/07/02 11:02:21;;;;;;;;;;;;;;;;;;5058872;28;20019;-81
2021/07/02 11:04:49;;;;;;;;;;;;;;;;;;5080174;28;19963;-82
2021/07/02 11:07:16;;;;;;;;;;;;;;;;;;5055109;28;19974;-81
2021/07/02 11:09:43;;;;;;;;;;;;;;;;;;5079931;28;20268;-81
2021/07/02 11:12:10;;;;;;;;;;;;;;;;;;5080362;28;19967;-81
2021/07/02 11:14:37;;;;;;;;;;;;;;;;;;5059782;28;19971;-80
2021/07/02 11:17:04;;;;;;;;;;;;;;;;;;5071632;28;20074;-81
2021/07/02 11:19:31;;;;;;;;;;;;;;;;;;5060746;28;19954;-80
2021/07/02 11:21:58;;;;;;;;;;;;;;;;;;5059485;28;19928;-80
2021/07/02 11:24:26;;;;;;;;;;;;;;;;;;5087554;28;20422;-80
2021/07/02 11:26:53;;;;;;;;;;;;;;;;;;5046855;28;20012;-81
2021/07/02 11:29:21;;;;;;;;;;;;;;;;;;5056057;28;20024;-81
2021/07/02 11:31:48;;;;;;;;;;;;;;;;;;5067291;28;20027;-80
2021/07/02 11:34:16;;;;;;;;;;;;;;;;;;5089668;28;19928;-81
2021/07/02 11:36:43;;;;;;;;;;;;;;;;;;5068076;28;19959;-81
2021/07/02 11:39:11;;;;;;;;;;;;;;;;;;5064164;28;19951;-80
2021/07/02 11:41:38;;;;;;;;;;;;;;;;;;5063325;28;19970;-81
2021/07/02 11:44:05;;;;;;;;;;;;;;;;;;5078989;28;20011;-81
2021/07/02 11:46:32;;;;;;;;;;;;;;;;;;5048481;28;20015;-81
2021/07/02 11:48:59;;;;;;;;;;;;;;;;;;5061988;28;19932;-81
2021/07/02 11:51:26;;;;;;;;;;;;;;;;;;5065007;28;20086;-81
2021/07/02 11:53:53;;;;;;;;;;;;;;;;;;5075956;28;20010;-80
2021/07/02 11:56:20;;;;;;;;;;;;;;;;;;5069714;28;19959;-81
2021/07/02 11:58:48;;;;;;;;;;;;;;;;;;5076933;28;20418;-81
2021/07/02 12:01:15;;;;;;;;;;;;;;;;;;5075680;28;20422;-81
2021/07/02 12:03:42;;;;;;;;;;;;;;;;;;5052065;28;19947;-81
2021/07/02 12:06:09;;;;;;;;;;;;;;;;;;5080547;28;19924;-81
2021/07/02 12:08:37;;;;;;;;;;;;;;;;;;5086366;28;19923;-79
2021/07/02 12:11:04;;;;;;;;;;;;;;;;;;5076695;28;19967;-80
2021/07/02 12:13:32;;;;;;;;;;;;;;;;;;5071633;28;19921;-81
2021/07/02 12:15:59;;;;;;;;;;;;;;;;;;5068112;28;19943;-80
2021/07/02 12:18:28;;;;;;;;;;;;;;;;;;5047992;28;20535;-80
2021/07/02 12:20:55;;;;;;;;;;;;;;;;;;5051528;28;20373;-80
2021/07/02 12:23:25;;;;;;;;;;;;;;;;;;5067162;28;20027;-80
2021/07/02 12:26:04;;;;;;;;;;;;;;;;;;5060115;28;19928;-79
2021/07/02 12:28:31;;;;;;;;;;;;;;;;;;5063770;28;19998;-79
2021/07/02 12:30:58;;;;;;;;;;;;;;;;;;5062975;28;20510;-81
2021/07/02 12:33:25;;;;;;;;;;;;;;;;;;5051035;28;20440;-78
2021/07/02 12:35:52;;;;;;;;;;;;;;;;;;5045363;28;19972;-81
2021/07/02 12:38:22;;;;;;;;;;;;;;;;;;5071062;28;19973;-83
2021/07/02 12:40:49;;;;;;;;;;;;;;;;;;5059166;28;20001;-80
2021/07/02 12:43:16;;;;;;;;;;;;;;;;;;5050159;28;19998;-79
2021/07/02 12:45:44;;;;;;;;;;;;;;;;;;5067729;28;19959;-83
2021/07/02 12:48:13;;;;;;;;;;;;;;;;;;5048797;28;20003;-80
2021/07/02 12:50:44;;;;;;;;;;;;;;;;;;5047763;28;19935;-78
2021/07/02 12:55:57;;;;;;;;;;;;;;;;;;5065078;28;20035;-80
2021/07/02 12:58:24;;;;;;;;;;;;;;;;;;5050198;28;19966;-79
2021/07/02 13:00:51;;;;;;;;;;;;;;;;;;5043174;28;19939;-80
2021/07/02 13:03:19;;;;;;;;;;;;;;;;;;5061537;28;19928;-81
2021/07/02 13:05:46;;;;;;;;;;;;;;;;;;5060031;28;19969;-78
2021/07/02 13:08:15;;;;;;;;;;;;;;;;;;5064787;28;20023;-78
2021/07/02 13:10:42;;;;;;;;;;;;;;;;;;5066276;28;20627;-77
2021/07/02 13:13:09;;;;;;;;;;;;;;;;;;5065105;28;19964;-78
2021/07/02 13:15:36;;;;;;;;;;;;;;;;;;5063702;28;19955;-78
2021/07/02 13:18:04;;;;;;;;;;;;;;;;;;5064894;28;20618;-80
2021/07/02 13:20:31;;;;;;;;;;;;;;;;;;5047871;28;19924;-80
2021/07/02 13:22:59;;;;;;;;;;;;;;;;;;5046870;28;20019;-79
2021/07/02 13:25:26;;;;;;;;;;;;;;;;;;5059902;28;20015;-80
2021/07/02 13:28:03;;;;;;;;;;;;;;;;;;5058640;28;19974;-79
2021/07/02 13:30:30;;;;;;;;;;;;;;;;;;5058239;28;20015;-81
2021/07/02 13:32:57;;;;;;;;;;;;;;;;;;5044053;28;20643;-79
2021/07/02 13:35:24;;;;;;;;;;;;;;;;;;5059947;28;20043;-79
2021/07/02 13:37:54;;;;;;;;;;;;;;;;;;5059267;28;19928;-77
2021/07/02 13:40:21;;;;;;;;;;;;;;;;;;5058521;28;19924;-78
2021/07/02 13:42:48;;;;;;;;;;;;;;;;;;5058866;28;19924;-78
2021/07/02 13:45:15;;;;;;;;;;;;;;;;;;5060577;28;20028;-81
2021/07/02 13:47:44;;;;;;;;;;;;;;;;;;5066906;28;19924;-77
2021/07/02 13:50:11;;;;;;;;;;;;;;;;;;5067008;28;19973;-78
2021/07/02 13:52:40;;;;;;;;;;;;;;;;;;5071757;28;19979;-78
2021/07/02 13:55:08;;;;;;;;;;;;;;;;;;5068222;28;20323;-79
2021/07/02 13:57:35;;;;;;;;;;;;;;;;;;5068975;28;19935;-79
2021/07/02 14:00:02;;;;;;;;;;;;;;;;;;5068016;28;20653;-78
2021/07/02 14:02:29;;;;;;;;;;;;;;;;;;5067894;28;19950;-78
2021/07/02 14:04:57;;;;;;;;;;;;;;;;;;5066062;28;19928;-78
2021/07/02 14:07:24;;;;;;;;;;;;;;;;;;5065665;28;20579;-79
2021/07/02 14:09:51;;;;;;;;;;;;;;;;;;5067895;28;20051;-79
2021/07/02 14:12:18;;;;;;;;;;;;;;;;;;5068714;28;19951;-81
2021/07/02 14:14:47;;;;;;;;;;;;;;;;;;5048572;28;20046;-83
2021/07/02 14:17:16;;;;;;;;;;;;;;;;;;5066998;28;19967;-81
2021/07/02 14:19:45;;;;;;;;;;;;;;;;;;5068515;28;20434;-82
2021/07/02 14:22:14;;;;;;;;;;;;;;;;;;5068393;28;20039;-80
2021/07/02 14:24:42;;;;;;;;;;;;;;;;;;5067461;28;19921;-79
2021/07/02 14:27:09;;;;;;;;;;;;;;;;;;5051580;28;20018;-80
2021/07/02 14:29:48;;;;;;;;;;;;;;;;;;5070908;28;20020;-81
2021/07/02 14:32:15;;;;;;;;;;;;;;;;;;5050539;28;20002;-80
2021/07/02 14:34:42;;;;;;;;;;;;;;;;;;5069981;28;20770;-79
2021/07/02 14:37:09;;;;;;;;;;;;;;;;;;5066619;28;20019;-76
2021/07/02 14:39:36;;;;;;;;;;;;;;;;;;5066558;28;19924;-80
2021/07/02 14:42:04;;;;;;;;;;;;;;;;;;5073355;28;20459;-84
2021/07/02 14:44:35;;;;;;;;;;;;;;;;;;5069077;28;19975;-85
2021/07/02 14:47:03;;;;;;;;;;;;;;;;;;5053479;28;20011;-84
2021/07/02 14:49:30;;;;;;;;;;;;;;;;;;5083904;28;19920;-84
2021/07/02 14:51:58;;;;;;;;;;;;;;;;;;5058002;28;20725;-85
2021/07/02 14:54:26;;;;;;;;;;;;;;;;;;5074257;28;19951;-84
2021/07/02 14:56:54;;;;;;;;;;;;;;;;;;5071721;28;19968;-80
2021/07/02 14:59:21;;;;;;;;;;;;;;;;;;5054661;28;20359;-84
2021/07/02 15:01:48;;;;;;;;;;;;;;;;;;5067427;28;20023;-79
2021/07/02 15:04:15;;;;;;;;;;;;;;;;;;5068406;28;19925;-81
2021/07/02 15:06:42;;;;;;;;;;;;;;;;;;5052092;28;19974;-83
2021/07/02 15:09:09;;;;;;;;;;;;;;;;;;5057943;28;19962;-83
2021/07/02 15:11:36;;;;;;;;;;;;;;;;;;5067042;28;20011;-80
2021/07/02 15:14:03;;;;;;;;;;;;;;;;;;5066746;28;19936;-79
2021/07/02 15:16:30;;;;;;;;;;;;;;;;;;5067391;28;20006;-79
2021/07/02 15:18:57;;;;;;;;;;;;;;;;;;5067603;28;19924;-80
2021/07/02 15:21:25;;;;;;;;;;;;;;;;;;5069085;28;20044;-79
2021/07/02 15:23:52;;;;;;;;;;;;;;;;;;5068550;28;20047;-79
2021/07/02 15:26:24;;;;;;;;;;;;;;;;;;5069132;28;20385;-82
2021/07/02 15:28:51;;;;;;;;;;;;;;;;;;5067824;28;20016;-80
2021/07/02 15:31:18;;;;;;;;;;;;;;;;;;5069881;28;20080;-79
2021/07/02 15:33:46;;;;;;;;;;;;;;;;;;5068125;28;19932;-77
2021/07/02 15:36:13;;;;;;;;;;;;;;;;;;5066722;28;20639;-78
2021/07/02 15:38:40;;;;;;;;;;;;;;;;;;5067131;28;20010;-78
2021/07/02 15:41:07;;;;;;;;;;;;;;;;;;5067159;28;20448;-78
2021/07/02 15:43:34;;;;;;;;;;;;;;;;;;5048119;28;20027;-78
2021/07/02 15:46:02;;;;;;;;;;;;;;;;;;5060234;28;19924;-78
2021/07/02 15:48:29;;;;;;;;;;;;;;;;;;5062197;28;19935;-78
2021/07/02 15:50:56;;;;;;;;;;;;;;;;;;5058462;28;19988;-78
2021/07/02 15:53:23;;;;;;;;;;;;;;;;;;5065673;28;20410;-80
2021/07/02 15:55:50;;;;;;;;;;;;;;;;;;5066180;28;20609;-80
2021/07/02 15:58:17;;;;;;;;;;;;;;;;;;5067264;28;20025;-81
2021/07/02 16:00:45;;;;;;;;;;;;;;;;;;5062425;28;19963;-80
2021/07/02 16:03:12;;;;;;;;;;;;;;;;;;5079366;28;19930;-80
2021/07/02 16:05:39;;;;;;;;;;;;;;;;;;5065705;28;19975;-80
2021/07/02 16:08:06;;;;;;;;;;;;;;;;;;5064181;28;20420;-80
2021/07/02 16:10:33;;;;;;;;;;;;;;;;;;5062338;28;19964;-80
2021/07/02 16:13:00;;;;;;;;;;;;;;;;;;5065613;28;19924;-80
2021/07/02 16:15:28;;;;;;;;;;;;;;;;;;5064155;28;19932;-80
2021/07/02 16:17:55;;;;;;;;;;;;;;;;;;5061998;28;20317;-80
2021/07/02 16:20:22;;;;;;;;;;;;;;;;;;5053208;28;19967;-83
2021/07/02 16:26:01;;;;;;;;;;;;;;;;;;4983824;23;20439;-80
2021/07/02 16:28:28;;;;;;;;;;;;;;;;;;4945945;28;20319;-81
2021/07/02 16:30:56;;;;;;;;;;;;;;;;;;4962920;28;20057;-78
2021/07/02 16:33:23;;;;;;;;;;;;;;;;;;4947689;28;19930;-79
2021/07/02 16:35:50;;;;;;;;;;;;;;;;;;4951512;28;19933;-78
2021/07/02 16:38:17;;;;;;;;;;;;;;;;;;4928382;28;20016;-79
2021/07/02 16:40:44;;;;;;;;;;;;;;;;;;4944915;29;20010;-79
2021/07/02 16:43:14;;;;;;;;;;;;;;;;;;4945793;28;19973;-79
2021/07/02 16:45:41;;;;;;;;;;;;;;;;;;4971561;28;20363;-79
2021/07/02 16:48:08;;;;;;;;;;;;;;;;;;4945809;28;19925;-79
2021/07/02 16:50:35;;;;;;;;;;;;;;;;;;4965036;28;19973;-79
2021/07/02 16:56:13;;;;;;;;;;;;;;;;;;4995603;23;19932;-79